TimeMST,TemperatureF,Dew PointF,Humidity,Sea Level PressureIn,VisibilityMPH,Wind Direction,Wind SpeedMPH,Gust SpeedMPH,PrecipitationIn,Events,Conditions,WindDirDegrees,DateUTC
12:53 AM,28.0,21.9,78,29.75,10.0,North,5.8,-,0.00,Snow,Light Snow,10,2013-02-10 07:53:00
1:53 AM,27.0,24.1,89,29.76,10.0,SSE,5.8,-,0.00,,Overcast,150,2013-02-10 08:53:00
2:53 AM,26.1,24.1,92,29.77,9.0,ESE,4.6,-,0.00,Snow,Light Snow,110,2013-02-10 09:53:00
3:53 AM,25.0,21.9,88,29.78,10.0,Calm,Calm,-,0.00,,Overcast,0,2013-02-10 10:53:00
4:53 AM,23.0,19.9,88,29.81,10.0,SSE,5.8,-,N/A,,Overcast,160,2013-02-10 11:53:00
6:28 AM,19.4,15.8,86,29.80,10.0,SSE,6.9,-,N/A,,Partly Cloudy,160,2013-02-10 13:28:00
6:44 AM,19.4,15.8,86,29.81,10.0,SSE,6.9,-,N/A,,Mostly Cloudy,160,2013-02-10 13:44:00
6:53 AM,19.9,15.1,81,29.84,10.0,SSE,5.8,-,N/A,,Overcast,160,2013-02-10 13:53:00
7:36 AM,21.2,15.8,80,29.83,10.0,SSE,4.6,-,N/A,,Overcast,160,2013-02-10 14:36:00
7:48 AM,21.2,15.8,80,29.83,10.0,SSE,6.9,-,N/A,,Overcast,160,2013-02-10 14:48:00
7:53 AM,21.0,16.0,81,29.86,10.0,SSE,5.8,-,N/A,,Overcast,160,2013-02-10 14:53:00
8:53 AM,23.0,17.1,78,29.88,10.0,SSE,6.9,-,0.00,,Overcast,160,2013-02-10 15:53:00
9:53 AM,27.0,21.0,78,29.87,10.0,SE,4.6,-,N/A,,Scattered Clouds,140,2013-02-10 16:53:00
10:53 AM,30.0,19.0,64,29.86,10.0,Calm,Calm,-,N/A,,Clear,0,2013-02-10 17:53:00
11:53 AM,32.0,18.0,56,29.84,10.0,Calm,Calm,-,N/A,,Scattered Clouds,0,2013-02-10 18:53:00
12:53 PM,33.1,16.0,50,29.81,10.0,Calm,Calm,-,N/A,,Scattered Clouds,0,2013-02-10 19:53:00
1:53 PM,34.0,19.0,54,29.81,10.0,WNW,6.9,-,N/A,,Mostly Cloudy,300,2013-02-10 20:53:00
2:53 PM,34.0,14.0,44,29.80,10.0,Calm,Calm,-,N/A,,Partly Cloudy,0,2013-02-10 21:53:00
3:53 PM,34.0,14.0,44,29.81,10.0,SE,3.5,-,N/A,,Overcast,140,2013-02-10 22:53:00
4:53 PM,34.0,16.0,48,29.83,10.0,Calm,Calm,-,N/A,,Overcast,0,2013-02-10 23:53:00
5:53 PM,32.0,19.9,61,29.87,10.0,SSE,11.5,-,N/A,,Overcast,160,2013-02-11 00:53:00
6:53 PM,30.9,21.9,69,29.90,10.0,SE,12.7,-,N/A,,Overcast,140,2013-02-11 01:53:00
7:53 PM,30.0,23.0,75,29.91,10.0,SSE,6.9,-,N/A,,Overcast,150,2013-02-11 02:53:00
9:53 PM,28.9,21.9,75,29.91,10.0,SE,4.6,-,N/A,,Overcast,140,2013-02-11 04:53:00
10:53 PM,28.0,21.9,78,29.90,10.0,SSE,5.8,-,N/A,,Overcast,160,2013-02-11 05:53:00
11:53 PM,28.0,21.0,75,29.89,10.0,South,4.6,-,N/A,,Overcast,180,2013-02-11 06:53:00